Time;durP1;ratioP1;P1;durP2;ratioP2;P2;SDS_P1;SDS_P2;PMS_P1;PMS_P2;Temp;Humidity;BMP_temperature;BMP_pressure;BME280_temperature;BME280_humidity;BME280_pressure;Samples;Min_cycle;Max_cycle;Signal;HPM_P1;HPM_P2
2023/07/31 00:00:05;;;;;;;12.13;3.80;;;;;;;;;;5049367;28;20021;-72
2023/07/31 00:02:30;;;;;;;10.65;3.95;;;;;;;;;;5049881;28;20025;-72
2023/07/31 00:04:55;;;;;;;12.37;3.87;;;;;;;;;;5048832;28;20033;-72
2023/07/31 00:07:20;;;;;;;7.90;3.17;;;;;;;;;;5046357;28;20326;-72
2023/07/31 00:09:45;;;;;;;10.80;3.47;;;;;;;;;;5049896;28;20061;-72
2023/07/31 00:12:10;;;;;;;13.07;3.57;;;;;;;;;;5050294;28;20258;-72
2023/07/31 00:14:36;;;;;;;11.13;3.37;;;;;;;;;;5047908;28;21553;-72
2023/07/31 00:17:01;;;;;;;11.07;4.23;;;;;;;;;;5045389;28;20063;-72
2023/07/31 00:19:26;;;;;;;9.07;3.38;;;;;;;;;;5048457;28;20310;-72
2023/07/31 00:21:51;;;;;;;10.53;3.53;;;;;;;;;;5047458;28;20056;-72
2023/07/31 00:24:16;;;;;;;7.33;2.67;;;;;;;;;;5048414;28;20615;-72
2023/07/31 00:26:41;;;;;;;13.43;3.40;;;;;;;;;;5047808;28;20295;-72
2023/07/31 00:29:07;;;;;;;7.27;2.80;;;;;;;;;;5044837;28;20317;-72
2023/07/31 00:31:32;;;;;;;15.90;3.80;;;;;;;;;;5030970;28;20056;-72
2023/07/31 00:33:57;;;;;;;11.40;5.05;;;;;;;;;;5046547;28;20271;-72
2023/07/31 00:36:22;;;;;;;10.70;3.00;;;;;;;;;;5048498;28;20029;-72
2023/07/31 00:38:47;;;;;;;9.07;3.40;;;;;;;;;;5049191;28;20264;-72
2023/07/31 00:41:13;;;;;;;8.25;2.85;;;;;;;;;;5047500;28;20077;-72
2023/07/31 00:43:38;;;;;;;13.83;4.40;;;;;;;;;;5048397;28;20061;-72
2023/07/31 00:46:03;;;;;;;9.20;3.13;;;;;;;;;;5048331;28;20303;-72
2023/07/31 00:48:28;;;;;;;10.57;3.42;;;;;;;;;;5048778;28;20040;-72
2023/07/31 00:50:54;;;;;;;12.40;3.63;;;;;;;;;;5048716;28;20493;-72
2023/07/31 00:53:19;;;;;;;10.48;3.60;;;;;;;;;;5048042;28;20021;-72
2023/07/31 00:55:44;;;;;;;9.20;3.38;;;;;;;;;;5049535;28;20478;-72
2023/07/31 00:58:10;;;;;;;15.95;3.58;;;;;;;;;;5048012;28;20025;-72
2023/07/31 01:00:35;;;;;;;12.52;3.60;;;;;;;;;;5049026;28;20020;-72
2023/07/31 01:03:00;;;;;;;12.60;2.93;;;;;;;;;;5049485;28;20721;-72
2023/07/31 01:05:33;;;;;;;7.30;3.20;;;;;;;;;;5046156;28;20276;-72
2023/07/31 01:08:14;;;;;;;7.00;3.17;;;;;;;;;;5046455;28;20121;-72
2023/07/31 01:10:47;;;;;;;20.10;4.03;;;;;;;;;;5053290;28;20021;-72
2023/07/31 01:13:12;;;;;;;12.68;3.15;;;;;;;;;;5053544;28;20066;-72
2023/07/31 01:15:38;;;;;;;10.83;3.57;;;;;;;;;;5052199;28;20025;-72
2023/07/31 01:18:03;;;;;;;17.25;3.83;;;;;;;;;;5051801;28;20362;-72
2023/07/31 01:20:30;;;;;;;5.93;2.73;;;;;;;;;;5052708;28;20044;-72
2023/07/31 01:23:14;;;;;;;7.20;2.65;;;;;;;;;;5051963;28;20271;-72
2023/07/31 01:25:43;;;;;;;12.93;3.38;;;;;;;;;;5052907;28;20083;-72
2023/07/31 01:28:13;;;;;;;17.55;3.30;;;;;;;;;;5052729;28;20021;-72
2023/07/31 01:30:41;;;;;;;10.52;3.05;;;;;;;;;;5051751;28;20021;-72
2023/07/31 01:33:07;;;;;;;12.50;3.53;;;;;;;;;;5051705;28;20108;-72
2023/07/31 01:35:37;;;;;;;12.48;3.05;;;;;;;;;;5051372;28;20104;-72
2023/07/31 01:38:02;;;;;;;7.90;2.30;;;;;;;;;;5050868;28;20025;-72
2023/07/31 01:40:27;;;;;;;6.45;2.55;;;;;;;;;;5049971;28;20043;-72
2023/07/31 01:42:52;;;;;;;9.10;2.80;;;;;;;;;;5051906;28;20041;-72
2023/07/31 01:45:17;;;;;;;12.17;3.10;;;;;;;;;;5051848;28;20090;-72
2023/07/31 01:47:43;;;;;;;10.43;3.05;;;;;;;;;;5050885;28;20330;-72
2023/07/31 01:50:08;;;;;;;9.10;3.43;;;;;;;;;;5051754;28;20020;-72
2023/07/31 01:52:33;;;;;;;14.95;3.15;;;;;;;;;;5052052;28;20321;-72
2023/07/31 01:54:58;;;;;;;8.63;2.72;;;;;;;;;;5052410;28;20101;-72
2023/07/31 01:57:24;;;;;;;13.25;3.35;;;;;;;;;;5048800;28;20021;-72
2023/07/31 01:59:49;;;;;;;9.60;2.93;;;;;;;;;;5051466;28;20029;-72
2023/07/31 02:02:14;;;;;;;8.73;3.00;;;;;;;;;;5051168;28;20100;-72
2023/07/31 02:04:40;;;;;;;8.43;2.80;;;;;;;;;;5050353;28;21119;-72
2023/07/31 02:07:05;;;;;;;9.02;3.30;;;;;;;;;;5050954;28;20371;-72
2023/07/31 02:09:31;;;;;;;8.93;3.03;;;;;;;;;;5051672;28;20545;-72
2023/07/31 02:11:56;;;;;;;9.77;2.50;;;;;;;;;;5049735;28;20293;-72
2023/07/31 02:14:21;;;;;;;11.97;3.13;;;;;;;;;;5051329;28;20504;-72
2023/07/31 02:16:46;;;;;;;11.50;4.70;;;;;;;;;;5051895;28;20275;-72
2023/07/31 02:19:12;;;;;;;8.68;3.08;;;;;;;;;;5051280;28;20025;-72
2023/07/31 02:21:37;;;;;;;9.00;3.33;;;;;;;;;;5049544;28;20409;-72
2023/07/31 02:24:02;;;;;;;12.07;3.33;;;;;;;;;;5051943;28;20267;-72
2023/07/31 02:26:27;;;;;;;8.70;2.70;;;;;;;;;;5031360;28;20401;-72
2023/07/31 02:28:52;;;;;;;10.43;3.07;;;;;;;;;;5052286;28;20036;-72
2023/07/31 02:31:18;;;;;;;12.97;2.70;;;;;;;;;;5051651;28;20096;-72
2023/07/31 02:33:43;;;;;;;9.17;3.00;;;;;;;;;;5051627;28;20733;-72
2023/07/31 02:36:08;;;;;;;10.00;3.20;;;;;;;;;;5048723;28;20279;-72
2023/07/31 02:38:33;;;;;;;9.93;3.00;;;;;;;;;;5049534;28;20340;-72
2023/07/31 02:40:59;;;;;;;9.75;3.10;;;;;;;;;;5050309;28;20351;-72
2023/07/31 02:43:24;;;;;;;7.22;2.63;;;;;;;;;;5034141;28;20122;-72
2023/07/31 02:45:52;;;;;;;11.10;3.37;;;;;;;;;;5049916;28;20036;-72
2023/07/31 02:48:17;;;;;;;8.10;2.42;;;;;;;;;;5050561;28;20378;-72
2023/07/31 02:50:43;;;;;;;7.60;2.85;;;;;;;;;;5050526;28;20025;-72
2023/07/31 02:53:08;;;;;;;6.27;2.97;;;;;;;;;;5050025;28;20102;-72
2023/07/31 02:55:33;;;;;;;9.53;2.67;;;;;;;;;;5048827;28;20021;-72
2023/07/31 02:57:58;;;;;;;10.10;2.78;;;;;;;;;;5051041;28;20268;-72
2023/07/31 03:00:23;;;;;;;14.63;3.15;;;;;;;;;;5050717;28;20035;-72
2023/07/31 03:02:49;;;;;;;14.03;3.23;;;;;;;;;;5051296;28;20032;-72
2023/07/31 03:05:14;;;;;;;8.50;3.13;;;;;;;;;;5048416;28;20789;-72
2023/07/31 03:07:39;;;;;;;10.32;3.42;;;;;;;;;;5046268;28;20378;-72
2023/07/31 03:10:05;;;;;;;10.47;3.00;;;;;;;;;;5043713;28;20096;-72
2023/07/31 03:12:30;;;;;;;8.63;3.10;;;;;;;;;;5050283;28;20485;-72
2023/07/31 03:14:55;;;;;;;7.43;2.33;;;;;;;;;;5051004;28;20049;-72
2023/07/31 03:17:20;;;;;;;13.50;3.10;;;;;;;;;;5050097;28;20756;-72
2023/07/31 03:19:46;;;;;;;10.00;3.17;;;;;;;;;;5050379;28;20269;-72
2023/07/31 03:22:11;;;;;;;9.43;2.95;;;;;;;;;;5049677;28;20028;-72
2023/07/31 03:24:36;;;;;;;10.17;2.07;;;;;;;;;;5044713;28;20041;-72
2023/07/31 03:27:01;;;;;;;14.07;4.07;;;;;;;;;;5048174;28;20283;-72
2023/07/31 03:29:26;;;;;;;11.63;3.30;;;;;;;;;;5050110;28;20612;-72
2023/07/31 03:31:52;;;;;;;8.45;2.05;;;;;;;;;;5050591;28;20021;-72
2023/07/31 03:34:17;;;;;;;9.25;2.95;;;;;;;;;;5050292;28;20024;-72
2023/07/31 03:36:42;;;;;;;9.60;2.67;;;;;;;;;;5047007;28;20027;-72
2023/07/31 03:39:07;;;;;;;8.37;3.07;;;;;;;;;;5050588;28;20456;-72
2023/07/31 03:41:33;;;;;;;7.15;2.67;;;;;;;;;;5048312;28;20271;-72
2023/07/31 03:43:58;;;;;;;13.20;2.40;;;;;;;;;;5050721;28;20028;-72
2023/07/31 03:46:24;;;;;;;14.37;3.27;;;;;;;;;;5049855;28;20295;-72
2023/07/31 03:48:49;;;;;;;9.45;2.85;;;;;;;;;;5050526;28;20728;-72
2023/07/31 03:51:14;;;;;;;12.00;2.90;;;;;;;;;;5048440;28;20023;-72
2023/07/31 03:53:39;;;;;;;10.70;3.85;;;;;;;;;;5056312;28;20271;-72
2023/07/31 03:56:05;;;;;;;13.48;3.17;;;;;;;;;;5049272;28;20108;-72
2023/07/31 03:58:30;;;;;;;14.03;3.10;;;;;;;;;;5048687;28;20060;-72
2023/07/31 04:00:55;;;;;;;10.07;3.57;;;;;;;;;;5050169;28;20283;-72
2023/07/31 04:03:20;;;;;;;9.37;3.23;;;;;;;;;;5048857;28;20267;-72
2023/07/31 04:05:45;;;;;;;11.13;3.37;;;;;;;;;;5049078;28;20760;-72
2023/07/31 04:08:10;;;;;;;12.88;3.83;;;;;;;;;;5049100;28;20104;-72
2023/07/31 04:10:36;;;;;;;7.53;4.37;;;;;;;;;;5048738;28;20914;-72
2023/07/31 04:13:01;;;;;;;10.10;3.90;;;;;;;;;;5049870;28;20271;-72
2023/07/31 04:15:26;;;;;;;10.37;2.80;;;;;;;;;;5049432;28;20029;-72
2023/07/31 04:17:51;;;;;;;7.43;3.40;;;;;;;;;;5043507;28;20311;-72
2023/07/31 04:20:17;;;;;;;10.65;3.30;;;;;;;;;;5038276;28;21325;-72
2023/07/31 04:22:42;;;;;;;5.88;3.00;;;;;;;;;;5048866;28;20111;-72
2023/07/31 04:25:07;;;;;;;8.38;3.08;;;;;;;;;;5049490;28;20032;-72
2023/07/31 04:27:32;;;;;;;8.68;2.83;;;;;;;;;;5048151;28;20569;-72
2023/07/31 04:29:57;;;;;;;9.23;3.53;;;;;;;;;;5049476;28;20033;-72
2023/07/31 04:32:23;;;;;;;9.00;3.77;;;;;;;;;;5045434;28;20287;-72
2023/07/31 04:34:48;;;;;;;19.60;5.20;;;;;;;;;;5049299;28;20276;-72
2023/07/31 04:37:13;;;;;;;10.43;3.23;;;;;;;;;;5047842;28;20036;-72
2023/07/31 04:39:39;;;;;;;18.87;4.10;;;;;;;;;;5048750;28;20783;-72
2023/07/31 04:42:04;;;;;;;14.45;3.60;;;;;;;;;;5049254;28;20267;-72
2023/07/31 04:44:30;;;;;;;8.45;3.13;;;;;;;;;;5048598;28;20075;-72
2023/07/31 04:46:55;;;;;;;13.90;3.67;;;;;;;;;;5044925;28;20033;-72
2023/07/31 04:49:20;;;;;;;11.40;4.50;;;;;;;;;;5046806;28;20551;-72
2023/07/31 04:51:45;;;;;;;10.73;4.27;;;;;;;;;;5049162;28;20263;-72
2023/07/31 04:54:12;;;;;;;9.43;3.07;;;;;;;;;;5049200;28;20314;-72
2023/07/31 04:56:37;;;;;;;9.65;3.47;;;;;;;;;;5047905;28;20283;-72
2023/07/31 04:59:02;;;;;;;12.30;3.30;;;;;;;;;;5049699;28;20043;-72
2023/07/31 05:01:27;;;;;;;17.63;4.53;;;;;;;;;;5045611;28;20072;-72
2023/07/31 05:03:53;;;;;;;10.53;3.90;;;;;;;;;;5047693;28;20276;-72
2023/07/31 05:06:18;;;;;;;11.20;4.03;;;;;;;;;;5048002;28;20767;-72
2023/07/31 05:08:43;;;;;;;7.87;3.90;;;;;;;;;;5048001;28;20296;-72
2023/07/31 05:11:08;;;;;;;10.07;4.13;;;;;;;;;;5049331;28;20338;-72
2023/07/31 05:13:33;;;;;;;11.23;3.47;;;;;;;;;;5048128;28;20030;-72
2023/07/31 05:15:58;;;;;;;12.13;3.83;;;;;;;;;;5047746;28;20271;-72
2023/07/31 05:18:24;;;;;;;12.67;3.57;;;;;;;;;;5047501;28;20113;-72
2023/07/31 05:20:49;;;;;;;13.07;4.10;;;;;;;;;;5048791;28;20752;-72
2023/07/31 05:23:14;;;;;;;8.90;4.33;;;;;;;;;;5048929;28;20263;-72
2023/07/31 05:25:39;;;;;;;10.38;3.95;;;;;;;;;;5049062;28;20260;-72
2023/07/31 05:28:04;;;;;;;12.43;3.10;;;;;;;;;;5033992;28;20021;-72
2023/07/31 05:30:30;;;;;;;9.13;3.20;;;;;;;;;;5043410;28;20263;-72
2023/07/31 05:32:56;;;;;;;8.57;3.08;;;;;;;;;;5045986;28;20086;-72
2023/07/31 05:35:21;;;;;;;9.10;3.70;;;;;;;;;;5042507;28;20035;-72
2023/07/31 05:37:46;;;;;;;7.70;3.70;;;;;;;;;;5037347;28;20012;-72
2023/07/31 05:40:11;;;;;;;7.87;3.17;;;;;;;;;;5037665;28;20307;-72
2023/07/31 05:42:38;;;;;;;11.73;3.47;;;;;;;;;;5032511;28;20067;-72
2023/07/31 05:45:03;;;;;;;6.55;3.22;;;;;;;;;;5031153;28;20112;-72
2023/07/31 05:47:29;;;;;;;9.05;3.28;;;;;;;;;;5040642;28;20131;-72
2023/07/31 05:49:54;;;;;;;12.77;3.70;;;;;;;;;;5042325;28;20024;-72
2023/07/31 05:52:19;;;;;;;9.00;3.20;;;;;;;;;;5044156;28;20371;-72
2023/07/31 05:54:45;;;;;;;13.18;3.85;;;;;;;;;;5046207;28;20021;-72
2023/07/31 05:57:11;;;;;;;12.45;3.75;;;;;;;;;;5052115;28;20021;-72
2023/07/31 05:59:36;;;;;;;11.70;3.78;;;;;;;;;;5050201;28;20079;-72
2023/07/31 06:02:02;;;;;;;8.50;3.58;;;;;;;;;;5032879;28;20452;-72
2023/07/31 06:04:27;;;;;;;13.02;3.30;;;;;;;;;;5051774;28;20410;-72
2023/07/31 06:06:53;;;;;;;6.13;2.70;;;;;;;;;;5049731;28;20028;-72
2023/07/31 06:09:18;;;;;;;14.50;4.37;;;;;;;;;;5049416;28;20017;-72
2023/07/31 06:11:43;;;;;;;15.03;3.90;;;;;;;;;;5049566;28;20283;-72
2023/07/31 06:14:08;;;;;;;8.70;3.60;;;;;;;;;;5049065;28;20279;-72
2023/07/31 06:16:34;;;;;;;9.80;4.05;;;;;;;;;;5048679;28;20623;-72
2023/07/31 06:18:59;;;;;;;11.05;4.32;;;;;;;;;;5049772;28;20032;-72
2023/07/31 06:21:24;;;;;;;10.32;3.60;;;;;;;;;;5045488;28;20033;-72
2023/07/31 06:23:49;;;;;;;10.73;3.43;;;;;;;;;;5051503;28;20025;-72
2023/07/31 06:26:14;;;;;;;10.93;3.87;;;;;;;;;;5049889;28;20287;-72
2023/07/31 06:28:40;;;;;;;14.73;3.47;;;;;;;;;;5048319;28;20307;-72
2023/07/31 06:31:05;;;;;;;12.90;3.85;;;;;;;;;;5048006;28;20033;-72
2023/07/31 06:33:30;;;;;;;8.67;3.50;;;;;;;;;;5042297;28;20009;-72
2023/07/31 06:35:55;;;;;;;7.90;3.70;;;;;;;;;;5049401;28;20653;-72
2023/07/31 06:38:25;;;;;;;13.60;3.80;;;;;;;;;;5050115;28;20335;-72
2023/07/31 06:40:50;;;;;;;10.98;3.50;;;;;;;;;;5051038;28;20457;-72
2023/07/31 06:43:16;;;;;;;9.32;2.75;;;;;;;;;;5051042;28;20021;-72
2023/07/31 06:45:41;;;;;;;10.00;3.30;;;;;;;;;;5045981;28;20033;-72
2023/07/31 06:48:06;;;;;;;12.95;4.05;;;;;;;;;;5047312;28;20110;-72
2023/07/31 06:50:31;;;;;;;10.80;3.83;;;;;;;;;;5049627;28;20029;-72
2023/07/31 06:52:57;;;;;;;11.37;4.47;;;;;;;;;;5051072;28;20316;-72
2023/07/31 06:55:22;;;;;;;7.70;3.50;;;;;;;;;;5050793;28;20348;-72
2023/07/31 06:57:48;;;;;;;11.18;3.75;;;;;;;;;;5048946;28;20066;-72
2023/07/31 07:00:13;;;;;;;9.40;4.45;;;;;;;;;;5049293;28;20028;-72
2023/07/31 07:02:38;;;;;;;11.10;3.70;;;;;;;;;;5051370;28;20103;-72
2023/07/31 07:05:04;;;;;;;10.48;3.70;;;;;;;;;;5050664;28;20048;-72
2023/07/31 07:07:29;;;;;;;9.98;3.88;;;;;;;;;;5048375;28;20065;-72
2023/07/31 07:09:54;;;;;;;12.00;3.33;;;;;;;;;;5046327;28;20498;-72
2023/07/31 07:12:19;;;;;;;9.53;4.67;;;;;;;;;;5047895;28;20013;-72
2023/07/31 07:14:47;;;;;;;10.97;4.20;;;;;;;;;;5050232;28;20025;-72
2023/07/31 07:17:12;;;;;;;10.80;3.90;;;;;;;;;;5048626;28;20363;-72
2023/07/31 07:19:39;;;;;;;9.98;3.78;;;;;;;;;;5050737;28;20096;-72
2023/07/31 07:22:05;;;;;;;8.32;3.65;;;;;;;;;;5050603;28;20051;-72
2023/07/31 07:24:30;;;;;;;6.75;3.17;;;;;;;;;;5049902;28;20021;-72
2023/07/31 07:26:55;;;;;;;13.47;4.10;;;;;;;;;;5047184;28;20032;-72
2023/07/31 07:29:21;;;;;;;8.97;3.87;;;;;;;;;;5047607;28;20017;-72
2023/07/31 07:31:46;;;;;;;10.37;3.83;;;;;;;;;;5051051;28;20771;-72
2023/07/31 07:34:11;;;;;;;7.97;3.47;;;;;;;;;;5048488;28;20274;-72
2023/07/31 07:36:37;;;;;;;8.10;3.93;;;;;;;;;;5049059;28;20406;-72
2023/07/31 07:39:02;;;;;;;10.00;3.47;;;;;;;;;;5050207;28;20322;-72
2023/07/31 07:41:27;;;;;;;8.60;3.40;;;;;;;;;;5042908;28;20028;-72
2023/07/31 07:43:52;;;;;;;11.23;3.70;;;;;;;;;;5050018;28;20299;-73
2023/07/31 07:46:18;;;;;;;12.13;4.30;;;;;;;;;;5049409;28;20489;-73
2023/07/31 07:48:43;;;;;;;8.75;3.40;;;;;;;;;;5049860;28;20059;-73
2023/07/31 07:51:08;;;;;;;11.60;3.87;;;;;;;;;;5048733;28;20032;-73
2023/07/31 07:53:33;;;;;;;12.25;4.03;;;;;;;;;;5050217;28;20389;-73
2023/07/31 07:55:58;;;;;;;15.33;3.93;;;;;;;;;;5047069;28;20510;-73
2023/07/31 07:58:24;;;;;;;10.47;4.33;;;;;;;;;;5050457;28;20266;-73
2023/07/31 08:00:50;;;;;;;13.27;4.60;;;;;;;;;;5047824;28;20272;-73
2023/07/31 08:03:16;;;;;;;12.13;4.45;;;;;;;;;;5049769;28;20032;-73
2023/07/31 08:05:42;;;;;;;6.68;2.45;;;;;;;;;;5049542;28;20021;-73
2023/07/31 08:08:07;;;;;;;11.52;3.80;;;;;;;;;;5044358;28;20020;-73
2023/07/31 08:10:32;;;;;;;10.97;3.60;;;;;;;;;;5049234;28;20033;-73
2023/07/31 08:12:57;;;;;;;9.57;4.00;;;;;;;;;;5045364;28;20274;-73
2023/07/31 08:15:22;;;;;;;12.73;4.80;;;;;;;;;;5049427;28;20267;-73
2023/07/31 08:17:47;;;;;;;16.23;4.37;;;;;;;;;;5046449;28;20287;-74
2023/07/31 08:20:13;;;;;;;16.03;4.40;;;;;;;;;;5047932;28;20267;-74
2023/07/31 08:22:39;;;;;;;13.85;4.88;;;;;;;;;;5047668;28;20111;-74
2023/07/31 08:25:04;;;;;;;9.60;3.78;;;;;;;;;;5049405;28;20148;-74
2023/07/31 08:27:29;;;;;;;11.18;3.50;;;;;;;;;;5047986;28;20125;-74
2023/07/31 08:29:55;;;;;;;8.73;3.92;;;;;;;;;;5047142;28;20020;-74
2023/07/31 08:32:20;;;;;;;7.77;3.93;;;;;;;;;;5044207;28;20053;-74
2023/07/31 08:34:45;;;;;;;9.13;2.97;;;;;;;;;;5047476;28;20505;-74
2023/07/31 08:37:11;;;;;;;8.90;3.20;;;;;;;;;;5047575;28;20021;-74
2023/07/31 08:39:39;;;;;;;7.00;2.80;;;;;;;;;;5050177;28;20043;-74
2023/07/31 08:42:07;;;;;;;10.20;3.60;;;;;;;;;;5047054;28;20021;-74
2023/07/31 08:44:33;;;;;;;6.82;3.05;;;;;;;;;;5031701;28;20028;-74
2023/07/31 08:46:58;;;;;;;10.48;3.30;;;;;;;;;;5048286;28;20017;-74
2023/07/31 08:49:24;;;;;;;8.47;2.70;;;;;;;;;;5045292;28;20029;-73
2023/07/31 08:51:50;;;;;;;9.38;2.60;;;;;;;;;;5048746;28;20295;-73
2023/07/31 08:54:15;;;;;;;8.55;2.80;;;;;;;;;;5045490;28;20083;-73
2023/07/31 08:56:40;;;;;;;9.93;2.27;;;;;;;;;;5046154;28;20014;-73
2023/07/31 08:59:06;;;;;;;9.35;2.75;;;;;;;;;;5044744;28;20275;-74
2023/07/31 09:01:35;;;;;;;9.20;3.25;;;;;;;;;;5046394;28;20021;-73
2023/07/31 09:04:01;;;;;;;9.82;3.38;;;;;;;;;;5045887;28;20051;-73
2023/07/31 09:06:28;;;;;;;7.57;3.10;;;;;;;;;;5049788;28;20024;-73
2023/07/31 09:08:53;;;;;;;6.65;2.42;;;;;;;;;;5047422;28;20029;-73
2023/07/31 09:11:18;;;;;;;6.60;2.95;;;;;;;;;;5044884;28;20020;-73
2023/07/31 09:13:44;;;;;;;9.60;3.90;;;;;;;;;;5044855;28;20025;-73
2023/07/31 09:16:10;;;;;;;9.38;3.80;;;;;;;;;;5047276;28;20267;-73
2023/07/31 09:18:55;;;;;;;6.80;2.63;;;;;;;;;;5048191;28;20047;-73
2023/07/31 09:21:20;;;;;;;5.90;2.90;;;;;;;;;;5045310;28;20477;-73
2023/07/31 09:23:47;;;;;;;1.30;1.10;;;;;;;;;;5049247;28;20062;-73
2023/07/31 09:26:28;;;;;;;6.85;3.03;;;;;;;;;;5043862;28;20048;-73
2023/07/31 09:28:53;;;;;;;8.60;2.65;;;;;;;;;;5048322;28;20024;-73
2023/07/31 09:31:31;;;;;;;8.57;3.20;;;;;;;;;;5050684;28;20111;-73
2023/07/31 09:33:56;;;;;;;9.27;4.13;;;;;;;;;;5052065;28;20354;-73
2023/07/31 09:36:21;;;;;;;10.45;4.30;;;;;;;;;;5049859;28;20096;-73
2023/07/31 09:38:46;;;;;;;9.13;3.90;;;;;;;;;;5050987;28;20051;-73
2023/07/31 09:41:13;;;;;;;11.47;3.50;;;;;;;;;;5049609;28;20316;-73
2023/07/31 09:43:38;;;;;;;10.30;3.50;;;;;;;;;;5053737;28;20275;-73
2023/07/31 09:46:03;;;;;;;8.30;3.50;;;;;;;;;;5054002;28;20549;-73
2023/07/31 09:48:28;;;;;;;5.67;2.87;;;;;;;;;;5052844;28;20275;-73
2023/07/31 09:50:54;;;;;;;12.00;2.90;;;;;;;;;;5051597;28;20425;-73
2023/07/31 09:53:27;;;;;;;3.83;2.22;;;;;;;;;;5050690;28;20021;-73
2023/07/31 09:55:53;;;;;;;7.13;3.05;;;;;;;;;;5050986;28;20021;-73
2023/07/31 09:58:19;;;;;;;10.15;3.38;;;;;;;;;;5051389;28;20027;-73
2023/07/31 10:00:44;;;;;;;6.75;2.80;;;;;;;;;;5051068;28;20489;-73
2023/07/31 10:03:10;;;;;;;8.60;3.40;;;;;;;;;;5051953;28;20033;-73
2023/07/31 10:05:37;;;;;;;6.35;2.60;;;;;;;;;;5050145;28;20035;-72
2023/07/31 10:08:03;;;;;;;8.82;2.65;;;;;;;;;;5049371;28;20025;-73
2023/07/31 10:10:28;;;;;;;5.63;2.70;;;;;;;;;;5051454;28;20027;-72
2023/07/31 10:12:54;;;;;;;8.63;2.85;;;;;;;;;;5051756;28;20695;-72
2023/07/31 10:15:19;;;;;;;9.10;3.33;;;;;;;;;;5051906;28;20020;-72
2023/07/31 10:17:48;;;;;;;14.60;2.17;;;;;;;;;;5050158;28;20035;-72
2023/07/31 10:20:14;;;;;;;6.50;2.15;;;;;;;;;;5049545;28;20029;-72
2023/07/31 10:22:39;;;;;;;11.20;3.20;;;;;;;;;;5051552;28;20031;-72
2023/07/31 10:25:07;;;;;;;7.35;3.05;;;;;;;;;;5051081;28;20021;-72
2023/07/31 10:27:33;;;;;;;5.15;2.47;;;;;;;;;;5050287;28;20021;-72
2023/07/31 10:29:59;;;;;;;4.93;2.60;;;;;;;;;;5046088;28;20029;-72
2023/07/31 10:32:24;;;;;;;10.07;2.80;;;;;;;;;;5050316;28;20151;-72
2023/07/31 10:34:51;;;;;;;11.52;3.38;;;;;;;;;;5050609;28;20028;-72
2023/07/31 10:37:23;;;;;;;7.80;2.55;;;;;;;;;;5049734;28;20471;-72
2023/07/31 10:39:57;;;;;;;6.38;2.63;;;;;;;;;;5050088;28;20158;-72
2023/07/31 10:42:30;;;;;;;6.10;2.85;;;;;;;;;;5048840;28;20020;-73
2023/07/31 10:44:57;;;;;;;9.43;2.83;;;;;;;;;;5048739;28;20064;-73
2023/07/31 10:47:22;;;;;;;6.35;2.78;;;;;;;;;;5049553;28;20035;-73
2023/07/31 10:49:48;;;;;;;7.95;2.85;;;;;;;;;;5051324;28;20024;-73
2023/07/31 10:52:13;;;;;;;11.45;3.25;;;;;;;;;;5051326;28;20021;-73
2023/07/31 10:54:39;;;;;;;11.48;3.38;;;;;;;;;;5050525;28;20040;-73
2023/07/31 10:57:18;;;;;;;11.15;3.40;;;;;;;;;;5047365;28;20028;-73
2023/07/31 10:59:44;;;;;;;7.32;2.88;;;;;;;;;;5044283;28;20100;-74
2023/07/31 11:02:23;;;;;;;7.87;3.63;;;;;;;;;;5050200;28;20659;-73
2023/07/31 11:05:05;;;;;;;6.37;2.87;;;;;;;;;;5045546;28;20120;-73
2023/07/31 11:07:45;;;;;;;10.13;3.03;;;;;;;;;;5048523;28;20032;-73
2023/07/31 11:10:11;;;;;;;7.50;3.33;;;;;;;;;;5048849;28;20025;-73
2023/07/31 11:12:36;;;;;;;6.37;2.33;;;;;;;;;;5050612;28;20025;-73
2023/07/31 11:15:03;;;;;;;6.18;3.20;;;;;;;;;;5047652;28;20767;-73
2023/07/31 11:17:28;;;;;;;5.28;3.10;;;;;;;;;;5048680;28;20097;-73
2023/07/31 11:19:53;;;;;;;7.07;2.07;;;;;;;;;;5049244;28;20061;-73
2023/07/31 11:22:18;;;;;;;5.80;1.88;;;;;;;;;;5048961;28;20295;-73
2023/07/31 11:24:44;;;;;;;4.18;2.22;;;;;;;;;;5048809;28;20118;-73
2023/07/31 11:27:09;;;;;;;4.10;2.17;;;;;;;;;;5047740;28;20029;-73
2023/07/31 11:29:34;;;;;;;2.77;1.10;;;;;;;;;;5049474;28;20298;-73
2023/07/31 11:31:59;;;;;;;4.40;1.97;;;;;;;;;;5049721;28;20299;-73
2023/07/31 11:34:25;;;;;;;4.63;1.80;;;;;;;;;;5048796;28;20632;-73
2023/07/31 11:36:54;;;;;;;3.50;1.77;;;;;;;;;;5047551;28;20013;-73
2023/07/31 11:39:19;;;;;;;2.50;1.52;;;;;;;;;;5049747;28;20118;-73
2023/07/31 11:41:45;;;;;;;4.90;1.70;;;;;;;;;;5045502;28;20029;-72
2023/07/31 11:44:10;;;;;;;3.70;1.47;;;;;;;;;;5045821;28;20768;-72
2023/07/31 11:46:35;;;;;;;4.20;1.03;;;;;;;;;;5049202;28;20299;-72
2023/07/31 11:49:01;;;;;;;4.00;1.50;;;;;;;;;;5047432;28;20032;-72
2023/07/31 11:51:27;;;;;;;2.13;1.27;;;;;;;;;;5047702;28;20420;-72
2023/07/31 11:53:57;;;;;;;4.18;1.27;;;;;;;;;;5048254;28;20031;-72
2023/07/31 11:56:23;;;;;;;3.25;1.27;;;;;;;;;;5046594;28;20064;-72
2023/07/31 11:58:53;;;;;;;2.38;1.48;;;;;;;;;;5047448;28;20053;-72
2023/07/31 12:01:20;;;;;;;4.10;1.17;;;;;;;;;;5046609;28;20039;-72
2023/07/31 12:03:46;;;;;;;3.58;1.02;;;;;;;;;;5040898;28;20111;-72
2023/07/31 12:06:11;;;;;;;2.50;1.30;;;;;;;;;;5047215;28;20486;-72
2023/07/31 12:08:36;;;;;;;3.10;1.13;;;;;;;;;;5049416;28;20032;-72
2023/07/31 12:11:05;;;;;;;4.23;1.30;;;;;;;;;;5046978;28;20025;-72
2023/07/31 12:13:31;;;;;;;2.92;1.67;;;;;;;;;;5045370;28;20032;-72
2023/07/31 12:15:57;;;;;;;2.58;1.00;;;;;;;;;;5047089;28;20009;-72
2023/07/31 12:18:23;;;;;;;1.55;0.80;;;;;;;;;;5049233;28;20504;-72
2023/07/31 12:20:53;;;;;;;1.10;0.68;;;;;;;;;;5048659;28;20036;-72
2023/07/31 12:23:25;;;;;;;2.65;1.10;;;;;;;;;;5045758;28;20021;-72
2023/07/31 12:26:00;;;;;;;3.67;1.17;;;;;;;;;;5049593;28;20064;-72
2023/07/31 12:28:25;;;;;;;3.83;1.20;;;;;;;;;;5045550;28;20025;-72
2023/07/31 12:30:51;;;;;;;5.13;1.40;;;;;;;;;;5039076;28;20466;-72
2023/07/31 12:33:18;;;;;;;2.03;1.30;;;;;;;;;;5045136;28;20025;-72
2023/07/31 12:35:45;;;;;;;2.97;1.30;;;;;;;;;;5046911;28;20025;-72
2023/07/31 12:38:11;;;;;;;4.07;1.00;;;;;;;;;;5049025;28;20118;-72
2023/07/31 12:40:37;;;;;;;9.48;1.30;;;;;;;;;;5046331;28;20024;-72
2023/07/31 12:43:03;;;;;;;2.85;1.13;;;;;;;;;;5045948;28;20401;-72
2023/07/31 12:45:28;;;;;;;2.95;1.17;;;;;;;;;;5048771;28;20025;-72
2023/07/31 12:47:54;;;;;;;4.40;1.08;;;;;;;;;;5048050;28;20033;-72
2023/07/31 12:50:19;;;;;;;3.53;1.80;;;;;;;;;;5047380;28;20024;-72
2023/07/31 12:52:44;;;;;;;4.37;1.53;;;;;;;;;;5048869;28;20095;-72
2023/07/31 12:55:10;;;;;;;4.27;1.83;;;;;;;;;;5047407;28;20277;-72
2023/07/31 12:57:36;;;;;;;3.10;1.50;;;;;;;;;;5044964;28;20029;-72
2023/07/31 13:00:01;;;;;;;5.53;2.40;;;;;;;;;;5047140;28;20029;-72
2023/07/31 13:02:27;;;;;;;3.53;1.90;;;;;;;;;;5043898;28;20629;-72
2023/07/31 13:04:54;;;;;;;2.85;1.50;;;;;;;;;;5038634;28;20310;-72
2023/07/31 13:07:19;;;;;;;4.85;1.80;;;;;;;;;;5049510;28;20033;-72
2023/07/31 13:09:44;;;;;;;2.67;1.70;;;;;;;;;;5047202;28;20032;-72
2023/07/31 13:12:09;;;;;;;5.72;1.77;;;;;;;;;;5049610;28;20100;-72
2023/07/31 13:14:34;;;;;;;5.40;2.03;;;;;;;;;;5050739;28;20055;-72
2023/07/31 13:17:00;;;;;;;5.60;2.17;;;;;;;;;;5052415;28;20466;-72
2023/07/31 13:19:25;;;;;;;4.77;2.47;;;;;;;;;;5052558;28;20274;-72
2023/07/31 13:21:50;;;;;;;4.03;2.00;;;;;;;;;;5052776;28;20282;-72
2023/07/31 13:24:15;;;;;;;4.33;2.07;;;;;;;;;;5048545;28;20036;-72
2023/07/31 13:26:40;;;;;;;4.83;2.03;;;;;;;;;;5051088;28;20096;-72
2023/07/31 13:29:05;;;;;;;4.40;2.00;;;;;;;;;;5052227;28;20024;-72
2023/07/31 13:31:31;;;;;;;6.07;1.67;;;;;;;;;;5050911;28;20274;-72
2023/07/31 13:33:56;;;;;;;4.73;1.97;;;;;;;;;;5052327;28;20322;-72
2023/07/31 13:36:21;;;;;;;3.73;1.90;;;;;;;;;;5051903;28;20775;-72
2023/07/31 13:38:46;;;;;;;6.90;2.13;;;;;;;;;;5048532;28;20028;-72
2023/07/31 13:41:11;;;;;;;2.47;1.48;;;;;;;;;;5051229;28;20415;-72
2023/07/31 13:43:37;;;;;;;5.67;3.40;;;;;;;;;;5048526;28;20074;-72
2023/07/31 13:46:06;;;;;;;6.67;3.23;;;;;;;;;;5051170;28;20502;-72
2023/07/31 13:48:31;;;;;;;8.85;5.30;;;;;;;;;;5051866;28;20547;-72
2023/07/31 13:50:56;;;;;;;10.05;6.82;;;;;;;;;;5052670;28;20120;-72
2023/07/31 13:53:22;;;;;;;6.50;3.97;;;;;;;;;;5051046;28;20374;-73
2023/07/31 13:55:49;;;;;;;3.90;2.23;;;;;;;;;;5052274;28;20023;-72
2023/07/31 13:58:14;;;;;;;4.28;2.00;;;;;;;;;;5048258;28;20068;-72
2023/07/31 14:00:39;;;;;;;2.90;1.23;;;;;;;;;;5044891;28;20085;-72
2023/07/31 14:03:04;;;;;;;3.40;1.67;;;;;;;;;;5050756;28;20740;-72
2023/07/31 14:05:29;;;;;;;5.33;2.03;;;;;;;;;;5051508;28;20874;-72
2023/07/31 14:07:55;;;;;;;4.40;2.03;;;;;;;;;;5050529;28;20024;-72
2023/07/31 14:10:20;;;;;;;2.87;1.80;;;;;;;;;;5050979;28;20280;-72
2023/07/31 14:12:45;;;;;;;3.23;1.90;;;;;;;;;;5049291;28;20418;-72
2023/07/31 14:15:10;;;;;;;3.10;1.73;;;;;;;;;;5047989;28;20021;-72
2023/07/31 14:17:36;;;;;;;4.78;1.88;;;;;;;;;;5047739;28;20363;-72
2023/07/31 14:20:01;;;;;;;7.33;1.70;;;;;;;;;;5047594;28;20420;-72
2023/07/31 14:22:27;;;;;;;3.80;1.83;;;;;;;;;;5049728;28;20027;-72
2023/07/31 14:24:52;;;;;;;4.85;2.10;;;;;;;;;;5050493;28;20052;-72
2023/07/31 14:27:17;;;;;;;4.23;2.50;;;;;;;;;;5049548;28;20075;-72
2023/07/31 14:29:42;;;;;;;4.33;2.43;;;;;;;;;;5050584;28;20104;-72